Terminal Aerodrome Forecast
Issued by NWS Central Illinois

Home | Current Version | Previous Version | Text Only | Print | Product List | Glossary On
Versions: 1 2 3 4 5 6 7 8 9 10 11 12 13 14 15 16 17 18 19 20 21
000
FTUS43 KILX 022300
TAFPIA
TAF
KPIA 022320Z 0300/0324 VRB03KT P6SM SCT250
     FM030800 VRB03KT 5SM BR SKC
      TEMPO 0309/0313 3SM BR SCT005
     FM031500 18010KT P6SM SCT025=

USA.gov is the U.S. government's official web portal to all federal, state and local government web resources and services.